Terminal Aerodrome Forecast
Issued by NWS Greer, SC

Home | Current Version | Previous Version | Text Only | Print | Product List | Glossary On
Versions: 1 2 3 4 5 6 7 8 9 10 11 12 13
000
FTUS42 KGSP 181137
TAFGSP
TAF
KGSP 181137Z 1812/1912 22005KT P6SM BKN023 BKN200
     FM181500 22008KT P6SM SCT025 BKN050
     FM181800 22012G20KT P6SM VCSH BKN060 BKN100
     FM190300 21016G24KT P6SM VCSH OVC015
     FM190500 23016G23KT 5SM -SHRA BKN015 OVC025
     FM190700 27012G19KT P6SM OVC025 PROB30 1907/1909 4SM -SHRA
      OVC015
     FM190900 30008KT P6SM SCT025=

USA.gov is the U.S. government's official web portal to all federal, state and local government web resources and services.